KTCL/TCL METAR and TAF weather

Enter ICAO airport designator
Station Type Date Time Source
KTCL METAR 2019/10/20 18:53 UTC NOAA

KTCL 201853Z VRB03KT 10SM OVC012 20/16 A2994 RMK AO2 SLP137 T02000161


Station Type Date Time Source
KTCL Decoded METAR 2019/10/20 18:53 UTC NOAA

TUSCALOOSA REGIONAL AIRPORT, AL, United States (KTCL) 33-13N 087-37W
Oct 20, 2019 - 02:53 PM EDT / 2019.10.20 1853 UTC
Wind: Variable at 3 MPH (3 KT):0
Visibility: 10 mile(s):0
Sky conditions: overcast
Temperature: 68.0 F (20.0 C)
Dew Point: 61.0 F (16.1 C)
Relative Humidity: 78%
Pressure (altimeter): 29.94 in. Hg (1013 hPa)
ob: KTCL 201853Z VRB03KT 10SM OVC012 20/16 A2994 RMK AO2 SLP137 T02000161
cycle: 19

Station Type Date Time Source
KTCL TAF 2019/10/20 19:36 UTC NOAA

TAF
AMD KTCL 201834Z 2019/2118 18004KT P6SM SCT040
TEMPO 2019/2020 OVC010
FM210200 15003KT P6SM BKN040
FM211500 18006G12KT 4SM RA OVC020

Example: see airport list